createdAt,value
2022-09-26T00:01:44.504Z,2.40
2022-09-26T00:04:22.350Z,2.30
2022-09-26T00:06:52.765Z,2.60
2022-09-26T00:09:21.430Z,2.40
2022-09-26T00:11:50.192Z,2.20
2022-09-26T00:14:21.360Z,2.47
2022-09-26T00:16:51.425Z,2.40
2022-09-26T00:19:20.176Z,2.40
2022-09-26T00:21:48.872Z,2.40
2022-09-26T00:24:17.622Z,2.50
2022-09-26T00:26:45.970Z,2.57
2022-09-26T00:29:14.617Z,2.40
2022-09-26T00:31:44.811Z,2.57
2022-09-26T00:36:58.272Z,2.53
2022-09-26T00:39:26.584Z,2.40
2022-09-26T00:41:54.999Z,2.53
2022-09-26T00:45:02.308Z,2.80
2022-09-26T00:47:43.282Z,2.30
2022-09-26T00:50:19.556Z,2.63
2022-09-26T00:52:52.370Z,2.47
2022-09-26T00:55:24.954Z,3.03
2022-09-26T00:57:59.362Z,2.37
2022-09-26T01:00:28.265Z,2.60
2022-09-26T01:02:56.991Z,2.60
2022-09-26T01:05:27.285Z,2.40
2022-09-26T01:07:57.316Z,2.47
2022-09-26T01:10:27.569Z,2.57
2022-09-26T01:12:57.898Z,2.20
2022-09-26T01:15:26.532Z,2.77
2022-09-26T01:17:54.982Z,2.40
2022-09-26T01:20:46.705Z,2.20
2022-09-26T01:23:49.722Z,2.50
2022-09-26T01:26:50.800Z,2.27
2022-09-26T01:30:02.311Z,2.47
2022-09-26T01:32:59.779Z,2.80
2022-09-26T01:35:43.625Z,2.50
2022-09-26T01:38:23.999Z,2.60
2022-09-26T01:41:05.221Z,2.50
2022-09-26T01:43:41.804Z,2.57
2022-09-26T01:46:21.050Z,2.37
2022-09-26T01:48:55.832Z,2.60
2022-09-26T01:51:31.025Z,2.53
2022-09-26T01:54:03.929Z,3.00
2022-09-26T01:56:37.935Z,2.50
2022-09-26T01:59:09.813Z,2.70
2022-09-26T02:01:43.821Z,2.83
2022-09-26T02:04:20.106Z,2.77
2022-09-26T02:06:52.855Z,2.40
2022-09-26T02:09:27.099Z,2.50
2022-09-26T02:12:02.995Z,2.30
2022-09-26T02:14:35.790Z,2.53
2022-09-26T02:17:09.864Z,2.63
2022-09-26T02:19:46.764Z,2.40
2022-09-26T02:22:16.583Z,2.50
2022-09-26T02:24:44.872Z,2.30
2022-09-26T02:27:14.796Z,2.50
2022-09-26T02:29:45.279Z,2.37
2022-09-26T02:32:19.031Z,2.50
2022-09-26T02:34:50.102Z,2.33
2022-09-26T02:37:21.857Z,2.23
2022-09-26T02:39:53.132Z,2.60
2022-09-26T02:42:36.437Z,2.10
2022-09-26T02:45:21.616Z,2.10
2022-09-26T02:48:17.932Z,2.37
2022-09-26T02:51:01.860Z,2.50
2022-09-26T02:53:54.704Z,2.70
2022-09-26T02:56:39.393Z,2.70
2022-09-26T02:59:19.081Z,2.40
2022-09-26T03:02:07.333Z,3.23
2022-09-26T03:04:44.085Z,2.20
2022-09-26T03:07:20.379Z,2.93
2022-09-26T03:09:52.318Z,2.60
2022-09-26T03:12:21.482Z,2.23
2022-09-26T03:14:55.408Z,2.50
2022-09-26T03:17:28.988Z,2.27
2022-09-26T03:20:05.649Z,2.40
2022-09-26T03:22:38.697Z,2.20
2022-09-26T03:25:10.215Z,2.40
2022-09-26T03:27:45.075Z,2.23
2022-09-26T03:30:15.952Z,2.37
2022-09-26T03:32:53.587Z,2.20
2022-09-26T03:35:22.019Z,2.77
2022-09-26T03:37:51.669Z,2.50
2022-09-26T03:40:20.312Z,2.27
2022-09-26T03:43:24.235Z,2.67
2022-09-26T03:45:55.012Z,2.63
2022-09-26T03:48:27.302Z,2.50
2022-09-26T03:50:56.015Z,2.50
2022-09-26T03:53:25.864Z,2.67
2022-09-26T03:55:54.298Z,2.50
2022-09-26T03:58:22.533Z,2.70
2022-09-26T04:00:51.439Z,2.30
2022-09-26T04:03:21.329Z,2.20
2022-09-26T04:05:49.710Z,2.30
2022-09-26T04:08:18.727Z,2.50
2022-09-26T04:10:48.305Z,2.50
2022-09-26T04:13:39.718Z,2.70
2022-09-26T04:16:06.824Z,2.23
2022-09-26T04:18:36.854Z,2.23
2022-09-26T04:21:11.166Z,2.50
2022-09-26T04:23:40.896Z,2.53
2022-09-26T04:26:12.578Z,2.60
2022-09-26T04:28:42.050Z,2.67
2022-09-26T04:31:12.191Z,2.80
2022-09-26T04:33:43.099Z,2.63
2022-09-26T04:36:13.443Z,2.80
2022-09-26T04:38:42.002Z,2.70
2022-09-26T04:41:16.229Z,2.50
2022-09-26T04:43:45.113Z,2.20
2022-09-26T04:46:20.802Z,2.30
2022-09-26T04:48:52.979Z,2.33
2022-09-26T04:51:25.836Z,2.73
2022-09-26T04:53:54.574Z,2.53
2022-09-26T04:56:29.008Z,2.60
2022-09-26T04:58:59.242Z,2.93
2022-09-26T05:01:35.354Z,2.60
2022-09-26T05:04:15.283Z,2.50
2022-09-26T05:06:45.353Z,2.27
2022-09-26T05:09:26.199Z,2.50
2022-09-26T05:12:08.202Z,2.60
2022-09-26T05:14:38.938Z,2.60
2022-09-26T05:17:27.717Z,2.30
2022-09-26T05:20:00.984Z,2.30
2022-09-26T05:22:52.865Z,2.40
2022-09-26T05:25:38.613Z,2.33
2022-09-26T05:28:08.260Z,2.57
2022-09-26T05:30:40.941Z,2.30
2022-09-26T05:33:12.575Z,2.37
2022-09-26T05:35:41.552Z,2.43
2022-09-26T05:38:09.897Z,2.00
2022-09-26T05:40:57.379Z,2.37
2022-09-26T05:43:30.773Z,2.30
2022-09-26T05:46:14.132Z,2.30
2022-09-26T05:48:53.499Z,2.20
2022-09-26T05:51:32.111Z,1.90
2022-09-26T05:54:11.708Z,2.20
2022-09-26T05:57:15.408Z,2.10
2022-09-26T06:00:03.588Z,2.53
2022-09-26T06:03:05.814Z,2.27
2022-09-26T06:06:28.305Z,2.07
2022-09-26T06:09:21.402Z,2.40
2022-09-26T06:12:31.441Z,2.70
2022-09-26T06:15:33.551Z,2.50
2022-09-26T06:18:32.974Z,2.50
2022-09-26T06:21:23.445Z,2.43
2022-09-26T06:24:17.511Z,2.53
2022-09-26T06:27:46.929Z,2.30
2022-09-26T06:30:37.215Z,2.57
2022-09-26T06:34:02.930Z,2.40
2022-09-26T06:57:04.419Z,2.50
2022-09-26T06:59:34.354Z,2.43
2022-09-26T07:02:12.007Z,2.30
2022-09-26T07:05:05.736Z,2.50
2022-09-26T07:07:58.477Z,2.47
2022-09-26T07:10:31.935Z,2.47
2022-09-26T07:13:09.405Z,2.33
2022-09-26T07:15:40.145Z,2.13
2022-09-26T07:21:22.749Z,2.20
2022-09-26T07:24:02.601Z,2.17
2022-09-26T07:26:31.307Z,2.07
2022-09-26T07:29:01.236Z,1.90
2022-09-26T07:31:31.076Z,2.30
2022-09-26T07:34:05.702Z,1.83
2022-09-26T07:36:34.873Z,1.83
2022-09-26T07:39:03.261Z,2.00
2022-09-26T07:41:31.593Z,1.67
2022-09-26T07:47:22.296Z,2.10
2022-09-26T07:50:08.634Z,1.50
2022-09-26T07:52:57.093Z,1.40
2022-09-26T07:55:27.979Z,1.50
2022-09-26T07:58:14.977Z,1.77
2022-09-26T08:01:06.789Z,1.90
2022-09-26T08:04:14.256Z,1.80
2022-09-26T08:06:42.950Z,1.63
2022-09-26T08:09:20.594Z,1.70
2022-09-26T08:12:07.646Z,1.60
2022-09-26T08:14:54.952Z,1.47
2022-09-26T08:17:38.184Z,1.50
2022-09-26T08:20:07.747Z,1.50
2022-09-26T08:22:36.205Z,1.60
2022-09-26T08:25:06.864Z,1.53
2022-09-26T08:28:05.126Z,1.43
2022-09-26T08:30:33.918Z,1.70
2022-09-26T08:33:07.992Z,1.60
2022-09-26T08:35:39.538Z,2.00
2022-09-26T08:38:36.439Z,1.60
2022-09-26T08:41:49.841Z,1.70
2022-09-26T08:45:00.013Z,1.70
2022-09-26T08:47:48.359Z,1.80
2022-09-26T08:50:33.245Z,1.97
2022-09-26T08:53:06.060Z,2.20
2022-09-26T08:55:48.000Z,1.73
2022-09-26T08:58:21.682Z,1.93
2022-09-26T09:01:02.966Z,2.17
2022-09-26T09:03:39.275Z,2.00
2022-09-26T09:06:14.593Z,2.50
2022-09-26T09:08:47.569Z,2.30
2022-09-26T09:12:01.005Z,2.27
2022-09-26T09:15:24.200Z,2.57
2022-09-26T09:18:21.516Z,2.80
2022-09-26T09:21:24.537Z,2.70
2022-09-26T09:24:19.372Z,2.97
2022-09-26T09:30:15.302Z,2.50
2022-09-26T09:33:00.393Z,2.50
2022-09-26T09:35:51.128Z,2.20
2022-09-26T09:38:49.919Z,2.40
2022-09-26T09:41:47.424Z,2.00
2022-09-26T09:44:28.730Z,1.63
2022-09-26T09:46:57.073Z,1.70
2022-09-26T09:49:26.203Z,1.60
2022-09-26T09:52:09.059Z,1.67
2022-09-26T09:54:47.875Z,1.60
2022-09-26T09:57:41.569Z,1.40
2022-09-26T10:00:17.757Z,1.60
2022-09-26T10:03:01.566Z,1.30
2022-09-26T10:05:39.259Z,1.37
2022-09-26T10:08:14.178Z,1.43
2022-09-26T10:11:42.319Z,1.20
2022-09-26T10:14:39.606Z,1.10
2022-09-26T10:17:22.665Z,1.10
2022-09-26T10:20:04.013Z,1.00
2022-09-26T10:22:56.175Z,1.00
2022-09-26T10:25:29.912Z,0.97
2022-09-26T10:28:01.237Z,1.00
2022-09-26T10:30:33.210Z,1.10
2022-09-26T10:33:06.145Z,1.17
2022-09-26T10:35:44.277Z,0.90
2022-09-26T10:38:22.506Z,1.00
2022-09-26T10:41:03.625Z,0.90
2022-09-26T10:43:38.542Z,0.90
2022-09-26T10:46:25.197Z,1.00
2022-09-26T10:49:15.641Z,1.10
2022-09-26T10:52:20.796Z,1.00
2022-09-26T10:54:55.537Z,1.20
2022-09-26T10:57:28.574Z,1.03
2022-09-26T11:00:06.558Z,1.07
2022-09-26T11:02:36.252Z,1.03
2022-09-26T11:05:25.398Z,1.00
2022-09-26T11:08:25.825Z,1.20
2022-09-26T11:11:17.587Z,1.10
2022-09-26T11:14:27.384Z,0.93
2022-09-26T11:17:03.797Z,0.70
2022-09-26T11:19:45.469Z,1.00
2022-09-26T11:22:22.187Z,1.10
2022-09-26T11:25:00.839Z,1.00
2022-09-26T11:30:26.236Z,1.10
2022-09-26T11:33:05.426Z,1.40
2022-09-26T11:36:11.009Z,1.30
2022-09-26T11:38:47.741Z,1.30
2022-09-26T11:41:42.039Z,1.10
2022-09-26T11:44:29.140Z,1.20
2022-09-26T11:48:06.981Z,1.00
2022-09-26T11:51:14.870Z,1.00
2022-09-26T11:53:58.332Z,0.90
2022-09-26T11:57:01.643Z,1.20
2022-09-26T11:59:50.295Z,2.10
2022-09-26T12:02:38.214Z,1.40
2022-09-26T12:05:27.163Z,1.40
2022-09-26T12:08:08.593Z,1.20
2022-09-26T12:10:43.807Z,1.27
2022-09-26T12:13:24.925Z,1.00
2022-09-26T12:15:58.872Z,1.17
2022-09-26T12:18:36.786Z,1.27
2022-09-26T12:24:12.438Z,1.50
2022-09-26T12:26:47.198Z,4.37
2022-09-26T12:29:29.325Z,2.00
2022-09-26T12:32:21.659Z,2.70
2022-09-26T12:35:16.132Z,2.30
2022-09-26T12:38:00.121Z,2.37
2022-09-26T12:40:36.546Z,2.70
2022-09-26T12:43:36.149Z,2.30
2022-09-26T12:46:24.445Z,2.47
2022-09-26T12:49:09.516Z,2.17
2022-09-26T12:51:43.923Z,1.67
2022-09-26T12:54:49.732Z,2.60
2022-09-26T12:57:30.834Z,2.40
2022-09-26T13:00:20.204Z,2.07
2022-09-26T13:03:27.756Z,2.40
2022-09-26T13:06:21.192Z,2.50
2022-09-26T13:09:00.849Z,2.60
2022-09-26T13:11:42.771Z,2.27
2022-09-26T13:14:30.785Z,2.63
2022-09-26T13:17:10.455Z,2.77
2022-09-26T13:19:44.563Z,3.33
2022-09-26T13:22:27.384Z,2.80
2022-09-26T13:25:02.017Z,2.73
2022-09-26T13:27:38.304Z,3.50
2022-09-26T13:30:16.891Z,3.10
2022-09-26T13:32:54.913Z,3.27
2022-09-26T13:35:25.272Z,3.80
2022-09-26T13:38:10.958Z,3.20
2022-09-26T13:40:45.356Z,4.17
2022-09-26T13:43:27.245Z,3.70
2022-09-26T13:46:03.686Z,3.50
2022-09-26T13:48:50.071Z,3.40
2022-09-26T13:51:22.341Z,3.23
2022-09-26T13:54:04.996Z,3.60
2022-09-26T13:56:55.961Z,3.17
2022-09-26T13:59:51.442Z,3.30
2022-09-26T14:02:24.933Z,4.00
2022-09-26T14:04:54.867Z,3.87
2022-09-26T14:08:04.804Z,4.10
2022-09-26T14:10:38.780Z,4.17
2022-09-26T14:13:20.489Z,4.40
2022-09-26T14:16:01.285Z,4.43
2022-09-26T14:18:53.302Z,4.80
2022-09-26T14:21:39.982Z,4.00
2022-09-26T14:24:31.717Z,4.27
2022-09-26T14:27:06.985Z,4.73
2022-09-26T14:29:49.064Z,4.80
2022-09-26T14:32:19.998Z,5.17
2022-09-26T14:34:56.013Z,4.90
2022-09-26T14:37:34.040Z,4.90
2022-09-26T14:40:25.958Z,4.73
2022-09-26T14:42:58.760Z,4.50
2022-09-26T14:45:45.511Z,5.73
2022-09-26T14:48:30.279Z,4.60
2022-09-26T14:51:04.036Z,4.97
2022-09-26T14:53:38.823Z,4.70
2022-09-26T14:56:11.123Z,5.37
2022-09-26T14:58:53.072Z,5.43
2022-09-26T15:01:26.823Z,5.03
2022-09-26T15:04:02.901Z,4.50
2022-09-26T15:06:41.723Z,5.10
2022-09-26T15:09:12.907Z,4.97
2022-09-26T15:11:44.716Z,4.83
2022-09-26T15:14:22.886Z,5.07
2022-09-26T15:16:54.376Z,5.33
2022-09-26T15:19:28.091Z,4.60
2022-09-26T15:22:01.760Z,4.93
2022-09-26T15:24:32.897Z,4.53
2022-09-26T15:27:08.248Z,4.70
2022-09-26T15:29:37.067Z,4.97
2022-09-26T15:32:07.152Z,4.50
2022-09-26T15:34:39.709Z,4.80
2022-09-26T15:37:18.842Z,4.80
2022-09-26T15:39:47.149Z,4.57
2022-09-26T15:42:46.495Z,4.90
2022-09-26T15:45:29.771Z,5.30
2022-09-26T15:47:59.525Z,5.77
2022-09-26T15:50:41.391Z,5.80
2022-09-26T15:53:21.633Z,4.90
2022-09-26T15:55:53.358Z,4.33
2022-09-26T15:58:26.228Z,5.10
2022-09-26T16:03:48.705Z,4.87
2022-09-26T16:06:28.259Z,4.30
2022-09-26T16:09:02.360Z,5.17
2022-09-26T16:11:32.869Z,6.30
2022-09-26T16:14:02.209Z,5.53
2022-09-26T16:16:35.548Z,5.00
2022-09-26T16:19:04.982Z,4.73
2022-09-26T16:21:36.553Z,5.97
2022-09-26T16:24:32.395Z,5.33
2022-09-26T16:27:01.705Z,5.43
2022-09-26T16:29:35.173Z,4.50
2022-09-26T16:32:05.282Z,4.90
2022-09-26T16:34:34.262Z,5.30
2022-09-26T16:37:04.681Z,4.80
2022-09-26T16:39:34.670Z,4.73
2022-09-26T16:42:05.954Z,5.73
2022-09-26T16:44:37.391Z,4.97
2022-09-26T16:47:36.767Z,5.27
2022-09-26T16:50:20.063Z,4.07
2022-09-26T16:52:48.635Z,3.93
2022-09-26T16:55:18.623Z,3.90
2022-09-26T16:57:53.318Z,4.27
2022-09-26T17:00:42.664Z,3.93
2022-09-26T17:03:22.897Z,4.20
2022-09-26T17:05:52.911Z,3.97
2022-09-26T17:08:22.008Z,3.93
2022-09-26T17:10:52.184Z,4.17
2022-09-26T17:13:23.719Z,4.30
2022-09-26T17:15:55.589Z,3.77
2022-09-26T17:18:29.286Z,4.50
2022-09-26T17:21:00.304Z,4.27
2022-09-26T17:23:43.462Z,4.13
2022-09-26T17:26:21.604Z,4.63
2022-09-26T17:28:52.937Z,4.03
2022-09-26T17:31:23.181Z,3.97
2022-09-26T17:33:55.619Z,3.93
2022-09-26T17:36:30.794Z,4.43
2022-09-26T17:39:02.864Z,4.03
2022-09-26T17:41:34.538Z,4.27
2022-09-26T17:44:03.500Z,4.10
2022-09-26T17:46:32.938Z,4.13
2022-09-26T17:49:12.534Z,3.60
2022-09-26T17:51:43.133Z,4.30
2022-09-26T17:54:42.634Z,3.90
2022-09-26T17:57:15.456Z,4.77
2022-09-26T17:59:43.909Z,4.40
2022-09-26T18:02:20.321Z,3.80
2022-09-26T18:04:50.868Z,4.63
2022-09-26T18:07:20.381Z,4.10
2022-09-26T18:09:53.802Z,3.87
2022-09-26T18:12:25.544Z,4.27
2022-09-26T18:15:04.744Z,4.00
2022-09-26T18:17:33.347Z,3.57
2022-09-26T18:20:02.539Z,3.37
2022-09-26T18:22:37.404Z,3.50
2022-09-26T18:25:09.563Z,4.23
2022-09-26T18:27:40.790Z,3.57
2022-09-26T18:30:14.918Z,3.97
2022-09-26T18:32:47.438Z,4.10
2022-09-26T18:35:17.219Z,3.70
2022-09-26T18:37:55.376Z,3.53
2022-09-26T18:40:25.791Z,3.97
2022-09-26T18:42:58.289Z,3.83
2022-09-26T18:45:29.815Z,3.53
2022-09-26T18:47:58.328Z,3.47
2022-09-26T18:50:34.236Z,4.07
2022-09-26T18:53:03.109Z,3.80
2022-09-26T18:55:56.604Z,3.10
2022-09-26T18:58:27.778Z,3.10
2022-09-26T19:03:48.251Z,3.47
2022-09-26T19:06:26.766Z,4.27
2022-09-26T19:08:59.577Z,3.60
2022-09-26T19:11:32.608Z,3.63
2022-09-26T19:14:12.556Z,4.20
2022-09-26T19:16:55.096Z,4.27
2022-09-26T19:19:24.886Z,4.07
2022-09-26T19:21:58.162Z,3.93
2022-09-26T19:25:07.611Z,4.50
2022-09-26T19:27:42.845Z,3.87
2022-09-26T19:30:17.722Z,4.47
2022-09-26T19:32:49.289Z,3.97
2022-09-26T19:35:24.144Z,3.70
2022-09-26T19:37:53.076Z,4.13
2022-09-26T19:40:23.151Z,4.13
2022-09-26T19:42:51.897Z,4.03
2022-09-26T19:45:23.033Z,4.10
2022-09-26T19:47:57.335Z,3.50
2022-09-26T19:50:27.317Z,4.30
2022-09-26T19:52:58.413Z,4.20
2022-09-26T19:55:29.328Z,4.20
2022-09-26T20:00:52.677Z,4.27
2022-09-26T20:03:22.501Z,3.90
2022-09-26T20:05:51.413Z,3.93
2022-09-26T20:08:22.150Z,3.93
2022-09-26T20:10:51.086Z,4.10
2022-09-26T20:13:20.488Z,4.00
2022-09-26T20:15:52.079Z,4.10
2022-09-26T20:18:23.549Z,3.80
2022-09-26T20:23:37.510Z,4.00
2022-09-26T20:26:12.970Z,3.97
2022-09-26T20:28:41.449Z,4.03
2022-09-26T20:31:21.583Z,4.27
2022-09-26T20:33:51.410Z,3.37
2022-09-26T20:36:26.734Z,3.60
2022-09-26T20:38:57.717Z,3.50
2022-09-26T20:41:32.998Z,3.93
2022-09-26T20:44:06.394Z,4.07
2022-09-26T20:46:40.177Z,3.90
2022-09-26T20:49:14.826Z,3.87
2022-09-26T20:51:47.535Z,3.67
2022-09-26T20:54:28.048Z,3.73
2022-09-26T20:56:58.149Z,3.67
2022-09-26T20:59:29.567Z,3.70
2022-09-26T21:02:01.577Z,3.53
2022-09-26T21:04:32.795Z,3.40
2022-09-26T21:07:01.362Z,3.67
2022-09-26T21:09:29.928Z,3.63
2022-09-26T21:12:19.391Z,3.47
2022-09-26T21:14:47.869Z,3.33
2022-09-26T21:17:20.854Z,3.07
2022-09-26T21:20:16.455Z,3.07
2022-09-26T21:23:05.066Z,3.13
2022-09-26T21:25:34.351Z,3.43
2022-09-26T21:28:07.600Z,3.77
2022-09-26T21:30:36.110Z,3.23
2022-09-26T21:33:05.782Z,3.47
2022-09-26T21:35:34.055Z,3.00
2022-09-26T21:38:02.481Z,3.10
2022-09-26T21:40:33.736Z,3.47
2022-09-26T21:43:08.538Z,3.07
2022-09-26T21:45:40.144Z,3.40
2022-09-26T21:48:10.033Z,3.40
2022-09-26T21:50:41.965Z,3.40
2022-09-26T21:53:13.766Z,3.57
2022-09-26T21:55:47.796Z,3.17
2022-09-26T21:58:19.265Z,2.93
2022-09-26T22:00:47.568Z,3.00
2022-09-26T22:03:17.566Z,3.83
2022-09-26T22:05:45.821Z,3.10
2022-09-26T22:08:14.103Z,2.80
2022-09-26T22:10:42.721Z,3.47
2022-09-26T22:13:10.984Z,3.60
2022-09-26T22:15:39.388Z,3.00
2022-09-26T22:18:07.776Z,3.17
2022-09-26T22:20:37.717Z,3.07
2022-09-26T22:23:06.636Z,3.07
2022-09-26T22:25:38.580Z,2.67
2022-09-26T22:28:09.175Z,3.63
2022-09-26T22:30:40.329Z,3.27
2022-09-26T22:33:08.677Z,2.90
2022-09-26T22:35:38.331Z,2.80
2022-09-26T22:38:06.635Z,3.00
2022-09-26T22:40:34.964Z,2.70
2022-09-26T22:43:03.281Z,2.93
2022-09-26T22:45:31.656Z,2.83
2022-09-26T22:47:59.992Z,3.10
2022-09-26T22:50:28.787Z,2.73
2022-09-26T22:53:00.987Z,2.70
2022-09-26T22:55:29.698Z,2.90
2022-09-26T22:57:58.771Z,3.10
2022-09-26T23:00:27.851Z,3.03
2022-09-26T23:02:56.935Z,2.60
2022-09-26T23:05:25.338Z,2.33
2022-09-26T23:07:54.632Z,3.30
2022-09-26T23:10:24.491Z,3.10
2022-09-26T23:12:52.832Z,2.77
2022-09-26T23:15:21.180Z,2.63
2022-09-26T23:17:49.435Z,2.97
2022-09-26T23:20:17.996Z,2.97
2022-09-26T23:22:46.282Z,2.80
2022-09-26T23:25:14.587Z,2.80
2022-09-26T23:27:44.222Z,3.10
2022-09-26T23:30:13.858Z,2.87
2022-09-26T23:33:02.524Z,2.70
2022-09-26T23:35:30.980Z,3.37
2022-09-26T23:37:59.294Z,2.40
2022-09-26T23:40:29.439Z,2.43
2022-09-26T23:42:59.473Z,2.83
2022-09-26T23:45:27.881Z,2.50
2022-09-26T23:47:56.154Z,2.60
2022-09-26T23:50:24.544Z,2.87
2022-09-26T23:52:53.461Z,2.17
2022-09-26T23:55:21.770Z,2.20
2022-09-26T23:57:50.076Z,2.33
